createdAt,value
2018-05-10T13:09:41.164Z,1004.88
2018-05-10T13:10:41.184Z,1004.88
2018-05-10T13:11:41.215Z,1004.85
2018-05-10T13:12:41.322Z,1004.78
2018-05-10T13:13:41.515Z,1004.85
2018-05-10T13:14:41.974Z,1004.82
2018-05-10T13:15:42.426Z,1004.83
2018-05-10T13:16:42.458Z,1004.91
2018-05-10T13:17:42.500Z,1004.83
2018-05-10T13:18:42.608Z,1004.82
2018-05-10T13:19:42.656Z,1004.84
2018-05-10T13:20:42.941Z,1004.82
2018-05-10T13:21:43.388Z,1004.78
2018-05-10T13:22:43.379Z,1004.74
2018-05-10T13:23:43.639Z,1004.67
2018-05-10T13:24:43.657Z,1004.64
2018-05-10T13:25:43.713Z,1004.67
2018-05-10T13:26:44.195Z,1004.65
2018-05-10T13:27:44.217Z,1004.62
2018-05-10T13:28:44.261Z,1004.62
2018-05-10T13:29:44.298Z,1004.62
2018-05-10T13:30:44.497Z,1004.58
2018-05-10T13:31:44.717Z,1004.57
2018-05-10T13:32:44.757Z,1004.66
2018-05-10T13:33:44.789Z,1004.67
2018-05-10T13:34:44.829Z,1004.66
2018-05-10T13:35:44.865Z,1004.7
2018-05-10T13:36:44.905Z,1004.74
2018-05-10T13:37:44.937Z,1004.8
2018-05-10T13:38:45.390Z,1004.74
2018-05-10T13:39:45.431Z,1004.72
2018-05-10T13:40:45.601Z,1004.8
2018-05-10T13:41:45.777Z,1004.79
2018-05-10T13:42:45.824Z,1004.84
2018-05-10T13:43:45.846Z,1004.87
2018-05-10T13:44:45.896Z,1004.89
2018-05-10T13:45:46.174Z,1004.93
2018-05-10T13:46:46.467Z,1004.96
2018-05-10T13:47:46.457Z,1004.93
2018-05-10T13:48:46.499Z,1004.99
2018-05-10T13:49:46.723Z,1004.96
2018-05-10T13:50:47.187Z,1004.91
2018-05-10T13:51:47.382Z,1004.95
2018-05-10T13:52:47.590Z,1004.96
2018-05-10T13:53:47.696Z,1004.92
2018-05-10T13:54:47.686Z,1004.97
2018-05-10T13:55:47.923Z,1005.01
2018-05-10T13:56:47.958Z,1005.01
2018-05-10T13:57:48.172Z,1005.09
2018-05-10T13:58:48.229Z,1005.06
2018-05-10T13:59:48.257Z,1005.09
2018-05-10T14:00:48.311Z,1005.09
2018-05-10T14:01:48.337Z,1005.07
2018-05-10T14:02:48.384Z,1005.1
2018-05-10T14:03:48.695Z,1005.08
2018-05-10T14:04:48.456Z,1005.16
2018-05-10T14:05:48.723Z,1005.13
2018-05-10T14:06:48.959Z,1005.06
2018-05-10T14:07:49.436Z,1005.06
2018-05-10T14:08:49.863Z,1005.08
2018-05-10T14:09:49.852Z,1005.07
2018-05-10T14:10:49.888Z,1005.05
2018-05-10T14:11:50.287Z,1005.06
2018-05-10T14:12:50.325Z,1005.02
2018-05-10T14:13:50.399Z,1005.07
2018-05-10T14:14:50.404Z,1005.09
2018-05-10T14:15:50.687Z,1005.08
2018-05-10T14:16:50.747Z,1005.04
2018-05-10T14:17:50.815Z,1005.04
2018-05-10T14:18:51.107Z,1005.06
2018-05-10T14:19:51.177Z,1005.04
2018-05-10T14:20:50.963Z,1004.98
2018-05-10T14:21:50.904Z,1004.94
2018-05-10T14:22:50.969Z,1004.95
2018-05-10T14:23:50.983Z,1004.93
2018-05-10T14:24:51.502Z,1004.96
2018-05-10T14:25:51.526Z,1004.95
2018-05-10T14:26:51.573Z,1004.93
2018-05-10T14:27:52.089Z,1004.95
2018-05-10T14:28:52.094Z,1004.99
2018-05-10T14:29:52.235Z,1005.02
2018-05-10T14:30:52.277Z,1005.06
2018-05-10T14:31:52.603Z,1005.08
2018-05-10T14:32:52.582Z,1005.09
2018-05-10T14:33:52.801Z,1005.16
2018-05-10T14:34:52.853Z,1005.09
2018-05-10T14:35:52.889Z,1005.16
2018-05-10T14:36:52.919Z,1005.14
2018-05-10T14:37:52.948Z,1005.15
2018-05-10T14:38:53.707Z,1005.12
2018-05-10T14:39:53.665Z,1005.17
2018-05-10T14:40:53.672Z,1005.16
2018-05-10T14:41:53.738Z,1005.16
2018-05-10T14:42:53.759Z,1005.23
2018-05-10T14:43:53.997Z,1005.23
2018-05-10T14:44:54.714Z,1005.24
2018-05-10T14:45:54.758Z,1005.21
2018-05-10T14:46:54.831Z,1005.24
2018-05-10T14:47:54.833Z,1005.25
2018-05-10T14:48:54.882Z,1005.26
2018-05-10T14:49:55.243Z,1005.29
2018-05-10T14:50:55.267Z,1005.27
2018-05-10T14:51:55.342Z,1005.26
2018-05-10T14:52:55.213Z,1005.3
2018-05-10T14:53:55.401Z,1005.34
2018-05-10T14:54:55.117Z,1005.39
2018-05-10T14:55:55.141Z,1005.43
2018-05-10T14:56:55.175Z,1005.42
2018-05-10T14:57:55.687Z,1005.39
2018-05-10T14:58:55.718Z,1005.43
2018-05-10T14:59:55.748Z,1005.4
2018-05-10T15:00:55.785Z,1005.41
2018-05-10T15:01:55.942Z,1005.41
2018-05-10T15:02:56.279Z,1005.4
2018-05-10T15:03:56.027Z,1005.33
2018-05-10T15:04:56.146Z,1005.37
2018-05-10T15:05:56.129Z,1005.38
2018-05-10T15:06:56.143Z,1005.43
2018-05-10T15:07:56.199Z,1005.4
2018-05-10T15:08:56.217Z,1005.4
2018-05-10T15:09:56.320Z,1005.48
2018-05-10T15:10:56.287Z,1005.44
2018-05-10T15:11:56.340Z,1005.5
2018-05-10T15:12:56.648Z,1005.55
2018-05-10T15:13:56.656Z,1005.57
2018-05-10T15:14:57.015Z,1005.54
2018-05-10T15:15:57.198Z,1005.46
2018-05-10T15:16:57.640Z,1005.49
2018-05-10T15:17:58.013Z,1005.47
2018-05-10T15:18:58.245Z,1005.43
2018-05-10T15:19:58.698Z,1005.46
2018-05-10T15:20:58.737Z,1005.43
2018-05-10T15:21:58.776Z,1005.42
2018-05-10T15:22:58.958Z,1005.41
2018-05-10T15:23:59.649Z,1005.38
2018-05-10T15:24:59.838Z,1005.36
2018-05-10T15:25:59.877Z,1005.38
2018-05-10T15:26:59.920Z,1005.39
2018-05-10T15:27:59.948Z,1005.35
2018-05-10T15:29:00.023Z,1005.39
2018-05-10T15:30:00.287Z,1005.37
2018-05-10T15:31:00.347Z,1005.39
2018-05-10T15:32:00.346Z,1005.37
2018-05-10T15:33:00.402Z,1005.38
2018-05-10T15:34:00.429Z,1005.39
2018-05-10T15:35:00.473Z,1005.39
2018-05-10T15:36:00.502Z,1005.42
2018-05-10T15:37:00.541Z,1005.45
2018-05-10T15:38:00.675Z,1005.44
2018-05-10T15:39:00.994Z,1005.51
2018-05-10T15:40:00.979Z,1005.52
2018-05-10T15:41:00.799Z,1005.48
2018-05-10T15:42:01.133Z,1005.5
2018-05-10T15:43:01.227Z,1005.51
2018-05-10T15:44:01.287Z,1005.54
2018-05-10T15:45:01.346Z,1005.53
2018-05-10T15:46:01.640Z,1005.52
2018-05-10T15:47:02.018Z,1005.52
2018-05-10T15:48:01.965Z,1005.54
2018-05-10T15:49:01.990Z,1005.54
2018-05-10T15:50:02.444Z,1005.55
2018-05-10T15:51:02.480Z,1005.57
2018-05-10T15:52:02.519Z,1005.55
2018-05-10T15:53:03.025Z,1005.55
2018-05-10T15:54:03.053Z,1005.59
2018-05-10T15:55:03.243Z,1005.59
2018-05-10T15:56:03.391Z,1005.64
2018-05-10T15:57:03.568Z,1005.7
2018-05-10T15:58:03.613Z,1005.74
2018-05-10T15:59:03.647Z,1005.72
2018-05-10T16:00:09.958Z,1005.73
2018-05-10T16:01:03.727Z,1005.83
2018-05-10T16:02:04.057Z,1005.84
2018-05-10T16:03:03.825Z,1005.81
2018-05-10T16:04:03.841Z,1005.84
2018-05-10T16:05:03.875Z,1005.82
2018-05-10T16:06:04.821Z,1005.85
2018-05-10T16:07:04.641Z,1005.88
2018-05-10T16:08:04.688Z,1005.88
2018-05-10T16:09:04.564Z,1005.89
2018-05-10T16:10:04.887Z,1005.91
2018-05-10T16:11:05.085Z,1005.95
2018-05-10T16:12:04.656Z,1005.97
2018-05-10T16:13:05.201Z,1005.98
2018-05-10T16:14:05.695Z,1006
2018-05-10T16:15:06.235Z,1005.98
2018-05-10T16:16:06.235Z,1006.01
2018-05-10T16:17:06.268Z,1006.05
2018-05-10T16:18:06.277Z,1006.05
2018-05-10T16:19:06.405Z,1006.03
2018-05-10T16:20:06.384Z,1006.06
2018-05-10T16:21:06.363Z,1006.12
2018-05-10T16:22:06.396Z,1006.11
2018-05-10T16:23:06.584Z,1006.18
2018-05-10T16:24:06.521Z,1006.17
2018-05-10T16:25:06.566Z,1006.19
2018-05-10T16:26:06.741Z,1006.21
2018-05-10T16:27:06.798Z,1006.24
2018-05-10T16:28:06.863Z,1006.3
2018-05-10T16:29:06.877Z,1006.4
2018-05-10T16:30:07.032Z,1006.41
2018-05-10T16:31:07.075Z,1006.4
2018-05-10T16:32:07.513Z,1006.43
2018-05-10T16:33:07.568Z,1006.45
2018-05-10T16:34:07.610Z,1006.44
2018-05-10T16:35:07.801Z,1006.47
2018-05-10T16:36:07.723Z,1006.46
2018-05-10T16:37:07.768Z,1006.39
2018-05-10T16:38:08.220Z,1006.4
2018-05-10T16:39:08.646Z,1006.46
2018-05-10T16:40:08.702Z,1006.4
2018-05-10T16:41:08.719Z,1006.4
2018-05-10T16:42:08.755Z,1006.39
2018-05-10T16:43:08.804Z,1006.4
2018-05-10T16:44:08.829Z,1006.39
2018-05-10T16:45:08.888Z,1006.41
2018-05-10T16:46:08.906Z,1006.42
2018-05-10T16:47:09.397Z,1006.42
2018-05-10T16:48:09.665Z,1006.37
2018-05-10T16:49:09.705Z,1006.34
2018-05-10T16:50:09.736Z,1006.33
2018-05-10T16:51:10.129Z,1006.33
2018-05-10T16:52:09.827Z,1006.3
2018-05-10T16:53:10.007Z,1006.33
2018-05-10T16:54:10.038Z,1006.34
2018-05-10T16:55:10.430Z,1006.33
2018-05-10T16:56:10.590Z,1006.38
2018-05-10T16:57:10.638Z,1006.41
2018-05-10T16:58:11.091Z,1006.43
2018-05-10T16:59:11.298Z,1006.48
2018-05-10T17:00:11.331Z,1006.51
2018-05-10T17:01:11.695Z,1006.51
2018-05-10T17:02:11.721Z,1006.48
2018-05-10T17:03:11.832Z,1006.49
2018-05-10T17:04:11.885Z,1006.51
2018-05-10T17:05:11.917Z,1006.54
2018-05-10T17:06:12.496Z,1006.54
2018-05-10T17:07:12.442Z,1006.51
2018-05-10T17:08:12.489Z,1006.46
2018-05-10T17:09:12.899Z,1006.44
2018-05-10T17:10:12.927Z,1006.45
2018-05-10T17:11:12.966Z,1006.41
2018-05-10T17:12:13.006Z,1006.4
2018-05-10T17:13:13.039Z,1006.36
2018-05-10T17:14:13.078Z,1006.4
2018-05-10T17:15:13.120Z,1006.44
2018-05-10T17:16:13.296Z,1006.45
2018-05-10T17:17:13.193Z,1006.46
2018-05-10T17:18:13.227Z,1006.49
2018-05-10T17:19:13.649Z,1006.51
2018-05-10T17:20:13.723Z,1006.51
2018-05-10T17:21:13.746Z,1006.5
2018-05-10T17:22:14.184Z,1006.5
2018-05-10T17:23:14.599Z,1006.55
2018-05-10T17:24:14.820Z,1006.54
2018-05-10T17:25:14.849Z,1006.53
2018-05-10T17:26:14.896Z,1006.58
2018-05-10T17:27:14.928Z,1006.59
2018-05-10T17:28:14.991Z,1006.56
2018-05-10T17:29:15.033Z,1006.61
2018-05-10T17:30:15.091Z,1006.62
2018-05-10T17:31:15.384Z,1006.61
2018-05-10T17:32:15.275Z,1006.58
2018-05-10T17:33:15.306Z,1006.61
2018-05-10T17:34:15.244Z,1006.62
2018-05-10T17:35:15.450Z,1006.61
2018-05-10T17:36:15.308Z,1006.64
2018-05-10T17:37:15.480Z,1006.64
2018-05-10T17:38:15.537Z,1006.68
2018-05-10T17:39:15.510Z,1006.72
2018-05-10T17:40:15.540Z,1006.76
2018-05-10T17:41:15.608Z,1006.83
2018-05-10T17:42:15.658Z,1006.96
2018-05-10T17:43:15.706Z,1007.1
2018-05-10T17:44:15.678Z,1007.3
2018-05-10T17:45:15.730Z,1007.31
2018-05-10T17:46:15.860Z,1007.27
2018-05-10T17:47:16.195Z,1007.34
2018-05-10T17:48:16.027Z,1007.29
2018-05-10T17:49:15.939Z,1007.41
2018-05-10T17:56:22.372Z,1007.64
2018-05-10T17:57:22.414Z,1007.7
2018-05-10T17:58:22.950Z,1007.7
2018-05-10T18:00:22.343Z,1007.74
2018-05-10T18:01:22.809Z,1007.83
2018-05-10T18:02:22.848Z,1007.95
2018-05-10T18:03:22.887Z,1007.95
2018-05-10T18:04:22.926Z,1007.98
2018-05-10T18:05:22.971Z,1008.05
2018-05-10T18:06:22.994Z,1008.1
2018-05-10T18:07:23.058Z,1008.15
2018-05-10T18:08:23.075Z,1008.2
2018-05-10T18:09:23.259Z,1008.27
2018-05-10T18:10:23.719Z,1008.37
2018-05-10T18:11:23.753Z,1008.38
2018-05-10T18:12:23.800Z,1008.49
2018-05-10T18:13:23.829Z,1008.5
2018-05-10T18:14:23.866Z,1008.61
2018-05-10T18:15:24.381Z,1008.64
2018-05-10T18:16:24.424Z,1008.69
2018-05-10T18:17:24.444Z,1008.74
2018-05-10T18:18:24.482Z,1008.71
2018-05-10T18:19:24.521Z,1008.8
2018-05-10T18:20:24.552Z,1008.86
2018-05-10T18:21:25.102Z,1008.87
2018-05-10T18:22:25.061Z,1008.89
2018-05-10T18:23:25.172Z,1008.89
2018-05-10T18:24:25.172Z,1008.97
2018-05-10T18:25:25.587Z,1008.98
2018-05-10T18:26:25.447Z,1009.02
2018-05-10T18:27:25.454Z,1009.03
2018-05-10T18:28:25.534Z,1009.04
2018-05-10T18:29:25.746Z,1009.05
2018-05-10T18:30:25.787Z,1009.12
2018-05-10T18:31:26.059Z,1009.14
2018-05-10T18:32:26.102Z,1009.24
2018-05-10T18:33:26.135Z,1009.17
2018-05-10T18:34:26.170Z,1009.22
2018-05-10T18:35:26.206Z,1009.22
2018-05-10T18:36:26.242Z,1009.23
2018-05-10T18:37:26.275Z,1009.34
2018-05-10T18:38:26.318Z,1009.33
2018-05-10T18:39:26.354Z,1009.34
2018-05-10T18:40:26.389Z,1009.34
2018-05-10T18:41:26.425Z,1009.43
2018-05-10T18:42:26.689Z,1009.37
2018-05-10T18:43:27.221Z,1009.39
2018-05-10T18:44:27.258Z,1009.44
2018-05-10T18:45:27.291Z,1009.52
2018-05-10T18:46:27.639Z,1009.52
2018-05-10T18:47:27.588Z,1009.57
2018-05-10T18:48:27.632Z,1009.58
2018-05-10T18:49:28.111Z,1009.61
2018-05-10T18:50:28.144Z,1009.67
2018-05-10T18:51:28.176Z,1009.69
2018-05-10T18:52:28.222Z,1009.78
2018-05-10T18:53:28.687Z,1009.79
2018-05-10T18:54:28.723Z,1009.82
2018-05-10T18:55:28.759Z,1009.86
2018-05-10T18:56:28.793Z,1009.91
2018-05-10T18:57:29.038Z,1009.93
2018-05-10T18:58:29.277Z,1010.05
2018-05-10T18:59:29.733Z,1010.08
2018-05-10T19:00:29.769Z,1010.09
2018-05-10T19:01:29.808Z,1010.14
2018-05-10T19:02:29.846Z,1010.1
2018-05-10T19:03:30.154Z,1010.13
2018-05-10T19:04:30.389Z,1010.16
2018-05-10T19:05:30.572Z,1010.2
2018-05-10T19:06:31.317Z,1010.18
2018-05-10T19:07:31.086Z,1010.21
2018-05-10T19:08:31.359Z,1010.21
2018-05-10T19:09:31.388Z,1010.14
2018-05-10T19:10:31.378Z,1010.11
2018-05-10T19:11:31.957Z,1010.12
2018-05-10T19:12:31.982Z,1010.09
2018-05-10T19:13:32.333Z,1010.03
2018-05-10T19:14:32.002Z,1010.03
2018-05-10T19:15:32.118Z,1010.12
2018-05-10T19:16:32.075Z,1010.06
2018-05-10T19:17:32.117Z,1010.08
2018-05-10T19:18:32.146Z,1010.17
2018-05-10T19:19:32.185Z,1010.13
2018-05-10T19:20:32.218Z,1010.19
2018-05-10T19:21:32.255Z,1010.17
2018-05-10T19:22:32.291Z,1010.21
2018-05-10T19:23:32.528Z,1010.22
2018-05-10T19:24:32.577Z,1010.17
2018-05-10T19:25:32.593Z,1010.15
2018-05-10T19:26:33.299Z,1010.21
2018-05-10T19:27:33.368Z,1010.2
2018-05-10T19:28:33.860Z,1010.18
2018-05-10T19:29:34.049Z,1010.22
2018-05-10T19:30:34.254Z,1010.19
2018-05-10T19:31:34.485Z,1010.2
2018-05-10T19:32:34.524Z,1010.2
2018-05-10T19:33:34.607Z,1010.22
2018-05-10T19:34:34.658Z,1010.21
2018-05-10T19:35:34.630Z,1010.25
2018-05-10T19:36:34.666Z,1010.19
2018-05-10T19:37:34.849Z,1010.22
2018-05-10T19:38:35.292Z,1010.18
2018-05-10T19:39:35.330Z,1010.21
2018-05-10T19:40:35.659Z,1010.23
2018-05-10T19:41:35.648Z,1010.22
2018-05-10T19:42:35.700Z,1010.23
2018-05-10T19:43:35.721Z,1010.31
2018-05-10T19:44:35.752Z,1010.31
2018-05-10T19:45:36.530Z,1010.33
2018-05-10T19:46:36.311Z,1010.34
2018-05-10T19:47:36.347Z,1010.38
2018-05-10T19:48:36.384Z,1010.39
2018-05-10T19:49:36.420Z,1010.38
2018-05-10T19:50:36.497Z,1010.4
2018-05-10T19:51:36.723Z,1010.45
2018-05-10T19:52:36.733Z,1010.46
2018-05-10T19:53:36.761Z,1010.41
2018-05-10T19:54:37.275Z,1010.44
2018-05-10T19:55:37.590Z,1010.4
2018-05-10T19:56:37.374Z,1010.42
2018-05-10T19:57:37.323Z,1010.46
2018-05-10T19:58:37.448Z,1010.51
2018-05-10T19:59:37.862Z,1010.51
2018-05-10T20:00:37.429Z,1010.55
2018-05-10T20:01:37.734Z,1010.53
2018-05-10T20:02:37.500Z,1010.6
2018-05-10T20:03:37.540Z,1010.59
2018-05-10T20:04:37.673Z,1010.61
2018-05-10T20:05:37.705Z,1010.65
2018-05-10T20:06:37.656Z,1010.66
2018-05-10T20:07:37.693Z,1010.66
2018-05-10T20:08:38.014Z,1010.7
2018-05-10T20:09:37.987Z,1010.73
2018-05-10T20:10:37.995Z,1010.74
2018-05-10T20:11:38.459Z,1010.73
2018-05-10T20:12:39.135Z,1010.67
2018-05-10T20:13:39.242Z,1010.7
2018-05-10T20:14:39.196Z,1010.69
2018-05-10T20:15:39.648Z,1010.71
2018-05-10T20:16:39.664Z,1010.72
2018-05-10T20:17:39.909Z,1010.76
2018-05-10T20:18:39.959Z,1010.76
2018-05-10T20:19:40.201Z,1010.75
2018-05-10T20:20:40.197Z,1010.77
2018-05-10T20:21:40.484Z,1010.71
2018-05-10T20:22:40.530Z,1010.75
2018-05-10T20:23:40.634Z,1010.73
2018-05-10T20:24:40.963Z,1010.81
2018-05-10T20:25:40.991Z,1010.82
2018-05-10T20:26:41.285Z,1010.86
2018-05-10T20:27:41.262Z,1010.89
2018-05-10T20:28:41.437Z,1010.91
2018-05-10T20:29:41.331Z,1010.89
2018-05-10T20:30:41.533Z,1010.95
2018-05-10T20:31:41.745Z,1010.87
2018-05-10T20:32:41.766Z,1010.9
2018-05-10T20:33:42.251Z,1010.87
2018-05-10T20:34:42.277Z,1010.89
2018-05-10T20:35:42.318Z,1010.88
2018-05-10T20:36:42.358Z,1010.92
2018-05-10T20:37:42.384Z,1010.93
2018-05-10T20:38:42.831Z,1010.95
2018-05-10T20:39:42.868Z,1010.96
2018-05-10T20:40:43.327Z,1011.07
2018-05-10T20:41:43.627Z,1011.1
2018-05-10T20:42:43.565Z,1011.12
2018-05-10T20:43:43.874Z,1011.08
2018-05-10T20:44:44.144Z,1011.14
2018-05-10T20:45:44.086Z,1011.15
2018-05-10T20:46:44.133Z,1011.15
2018-05-10T20:47:44.344Z,1011.15
2018-05-10T20:48:44.577Z,1011.16
2018-05-10T20:49:44.756Z,1011.18
2018-05-10T20:50:44.955Z,1011.25
2018-05-10T20:51:44.979Z,1011.26
2018-05-10T20:52:45.019Z,1011.29
2018-05-10T20:53:45.043Z,1011.29
2018-05-10T20:54:45.098Z,1011.36
2018-05-10T20:55:45.114Z,1011.36
2018-05-10T20:56:45.152Z,1011.36
2018-05-10T20:57:45.604Z,1011.42
2018-05-10T20:58:45.829Z,1011.46
2018-05-10T20:59:45.862Z,1011.43
2018-05-10T21:00:46.072Z,1011.47
2018-05-10T21:01:45.972Z,1011.48
2018-05-10T21:02:45.963Z,1011.48
2018-05-10T21:03:45.995Z,1011.54
2018-05-10T21:04:46.032Z,1011.51
2018-05-10T21:05:46.216Z,1011.53
2018-05-10T21:06:47.283Z,1011.52
2018-05-10T21:07:47.213Z,1011.55
2018-05-10T21:08:47.422Z,1011.59
2018-05-10T21:09:47.542Z,1011.58
2018-05-10T21:10:47.579Z,1011.57
2018-05-10T21:11:47.983Z,1011.52
2018-05-10T21:12:48.420Z,1011.58
2018-05-10T21:13:48.590Z,1011.57
2018-05-10T21:14:48.621Z,1011.57
2018-05-10T21:15:49.032Z,1011.63
2018-05-10T21:16:49.189Z,1011.61
2018-05-10T21:17:49.230Z,1011.65
2018-05-10T21:18:49.668Z,1011.64
2018-05-10T21:19:49.826Z,1011.64
2018-05-10T21:20:49.884Z,1011.63
2018-05-10T21:21:49.926Z,1011.59
2018-05-10T21:22:50.366Z,1011.59
2018-05-10T21:23:50.398Z,1011.58
2018-05-10T21:24:50.461Z,1011.56
2018-05-10T21:25:50.488Z,1011.59
2018-05-10T21:26:50.503Z,1011.6
2018-05-10T21:27:50.934Z,1011.6
2018-05-10T21:28:50.962Z,1011.65
2018-05-10T21:29:51.417Z,1011.63
2018-05-10T21:30:51.467Z,1011.69
2018-05-10T21:31:51.964Z,1011.7
2018-05-10T21:32:51.986Z,1011.71
2018-05-10T21:33:52.314Z,1011.73
2018-05-10T21:34:52.043Z,1011.67
2018-05-10T21:35:52.046Z,1011.76
2018-05-10T21:36:52.448Z,1011.74
2018-05-10T21:37:52.694Z,1011.76
2018-05-10T21:38:52.675Z,1011.79
2018-05-10T21:39:52.705Z,1011.81
2018-05-10T21:40:52.737Z,1011.81
2018-05-10T21:41:53.176Z,1011.82
2018-05-10T21:42:53.629Z,1011.81
2018-05-10T21:43:53.623Z,1011.86
2018-05-10T21:44:54.050Z,1011.91
2018-05-10T21:45:54.081Z,1011.85
2018-05-10T21:46:54.279Z,1011.9
2018-05-10T21:47:54.694Z,1011.92
2018-05-10T21:48:54.727Z,1011.9
2018-05-10T21:49:54.945Z,1011.92
2018-05-10T21:50:54.962Z,1011.91
2018-05-10T21:51:54.992Z,1011.91
2018-05-10T21:52:55.026Z,1011.93
2018-05-10T21:53:55.074Z,1011.97
2018-05-10T21:54:55.196Z,1011.96
2018-05-10T21:55:55.127Z,1011.99
2018-05-10T21:56:55.496Z,1011.98
2018-05-10T21:57:55.562Z,1011.97
2018-05-10T21:58:55.564Z,1012.03
2018-05-10T21:59:55.982Z,1012.02
2018-05-10T22:00:56.198Z,1012.01
2018-05-10T22:01:56.080Z,1012.06
2018-05-10T22:02:56.076Z,1012.08
2018-05-10T22:03:56.118Z,1012.08
2018-05-10T22:04:56.358Z,1012.09
2018-05-10T22:05:56.388Z,1012.1
2018-05-10T22:06:56.429Z,1012.12
2018-05-10T22:07:56.482Z,1012.1
2018-05-10T22:08:56.509Z,1012.14
2018-05-10T22:09:56.522Z,1012.13
2018-05-10T22:10:56.558Z,1012.14
2018-05-10T22:11:57.038Z,1012.15
2018-05-10T22:12:57.081Z,1012.13
2018-05-10T22:13:57.516Z,1012.13
2018-05-10T22:14:57.512Z,1012.16
2018-05-10T22:15:57.717Z,1012.13
2018-05-10T22:16:57.755Z,1012.14
2018-05-10T22:17:57.787Z,1012.18
2018-05-10T22:18:57.821Z,1012.17
2018-05-10T22:19:58.277Z,1012.19
2018-05-10T22:20:58.479Z,1012.21
2018-05-10T22:21:58.706Z,1012.22
2018-05-10T22:22:58.740Z,1012.24
2018-05-10T22:23:58.814Z,1012.21
2018-05-10T22:24:58.805Z,1012.19
2018-05-10T22:25:58.999Z,1012.21
2018-05-10T22:26:59.039Z,1012.18
2018-05-10T22:27:59.072Z,1012.26
2018-05-10T22:28:59.107Z,1012.2
2018-05-10T22:29:59.320Z,1012.17
2018-05-10T22:30:59.295Z,1012.21
2018-05-10T22:31:59.229Z,1012.21
2018-05-10T22:32:59.242Z,1012.18
2018-05-10T22:34:00.303Z,1012.12
2018-05-10T22:35:00.152Z,1012.15
2018-05-10T22:36:00.618Z,1012.16
2018-05-10T22:37:00.621Z,1012.08
2018-05-10T22:38:00.654Z,1012.09
2018-05-10T22:39:00.906Z,1012.1
2018-05-10T22:40:00.919Z,1012.08
2018-05-10T22:41:00.957Z,1012.08
2018-05-10T22:42:01.295Z,1012.02
2018-05-10T22:43:01.051Z,1012.06
2018-05-10T22:44:01.739Z,1012.05
2018-05-10T22:45:01.621Z,1012.03
2018-05-10T22:46:01.651Z,1011.99
2018-05-10T22:47:01.685Z,1011.99
2018-05-10T22:48:02.045Z,1012
2018-05-10T22:49:02.440Z,1012.02
2018-05-10T22:50:02.654Z,1011.96
2018-05-10T22:51:02.692Z,1011.9
2018-05-10T22:52:02.961Z,1012.01
2018-05-10T22:53:02.881Z,1012.01
2018-05-10T22:54:02.792Z,1012.04
2018-05-10T22:55:02.828Z,1011.99
2018-05-10T22:56:02.893Z,1012.03
2018-05-10T22:57:02.942Z,1012.08
2018-05-10T22:58:02.967Z,1012.06
2018-05-10T22:59:03.282Z,1012.06
2018-05-10T23:00:09.712Z,1012.12
2018-05-10T23:01:09.749Z,1012.08
2018-05-10T23:02:09.955Z,1012.13
2018-05-10T23:03:09.994Z,1012.14
2018-05-10T23:04:10.024Z,1012.15
2018-05-10T23:05:10.224Z,1012.13
2018-05-10T23:06:10.288Z,1012.18
2018-05-10T23:07:10.297Z,1012.18
2018-05-10T23:08:10.329Z,1012.19
2018-05-10T23:09:10.506Z,1012.27
2018-05-10T23:10:10.536Z,1012.27
2018-05-10T23:11:10.569Z,1012.3
2018-05-10T23:12:10.873Z,1012.35
2018-05-10T23:13:10.842Z,1012.34
2018-05-10T23:14:10.991Z,1012.33
2018-05-10T23:15:11.088Z,1012.36
2018-05-10T23:16:11.068Z,1012.28
2018-05-10T23:17:11.065Z,1012.27
2018-05-10T23:18:11.025Z,1012.28
2018-05-10T23:19:11.227Z,1012.28
2018-05-10T23:20:11.526Z,1012.27
2018-05-10T23:21:11.539Z,1012.29
2018-05-10T23:22:11.761Z,1012.28
2018-05-10T23:23:11.800Z,1012.29
2018-05-10T23:24:11.829Z,1012.32
2018-05-10T23:25:12.013Z,1012.31
2018-05-10T23:26:12.190Z,1012.28
2018-05-10T23:27:12.223Z,1012.29
2018-05-10T23:28:12.258Z,1012.27
2018-05-10T23:29:12.290Z,1012.35
2018-05-10T23:30:12.490Z,1012.39
2018-05-10T23:31:12.522Z,1012.39
2018-05-10T23:32:12.555Z,1012.45
2018-05-10T23:33:13.015Z,1012.39
2018-05-10T23:34:13.003Z,1012.42
2018-05-10T23:35:13.033Z,1012.38
2018-05-10T23:36:13.114Z,1012.37
2018-05-10T23:37:13.146Z,1012.36
2018-05-10T23:38:13.204Z,1012.36
2018-05-10T23:39:13.600Z,1012.45
2018-05-10T23:40:13.628Z,1012.53
2018-05-10T23:41:13.662Z,1012.54
2018-05-10T23:42:13.991Z,1012.49
2018-05-10T23:43:14.021Z,1012.63
2018-05-10T23:44:14.046Z,1012.66
2018-05-10T23:45:14.082Z,1012.61
2018-05-10T23:46:14.222Z,1012.66
2018-05-10T23:47:14.366Z,1012.71
2018-05-10T23:48:14.488Z,1012.71
2018-05-10T23:49:14.436Z,1012.7
2018-05-10T23:50:14.463Z,1012.76
2018-05-10T23:51:14.502Z,1012.76
2018-05-10T23:52:14.529Z,1012.82
2018-05-10T23:53:14.564Z,1012.82
2018-05-10T23:54:14.607Z,1012.82
2018-05-10T23:55:14.643Z,1012.8
2018-05-10T23:56:14.670Z,1012.87
2018-05-10T23:57:15.066Z,1012.82
2018-05-10T23:58:15.099Z,1012.86
2018-05-10T23:59:15.313Z,1012.89
